首页
METAR-TAF:

METAR-TAF

机场 :

萨比哈·格克琴国际机场

伊斯坦布尔S萨比哈·格克琴, 土耳其

纬度: 40-53-55N, 经度: 029-18-33E, 海拔: 95米

当前天气观测

该预报发布于31分钟前的01:50 UTC
风速2节,风向多变
温度 16°C
湿度 88%
气压 1011 hPa
能见度10公里或以上
少量云层高于2000英尺, 积雨云.
散云层高于4000英尺
多云层高于9000英尺

METAR: LTFJ 010150Z VRB02KT 9999 FEW020CB SCT040 BKN090 16/14 Q1011 NOSIG RMK RWY24 18002KT

时间: 05:21 (02:21 UTC)

预报

该预报发布于2小时和2分钟前的00:19 UTC
预报有效从01日的 00点(UTC)到 01日的 24点(UTC)
风速9节,风向西转西南
能见度10公里或以上
散云层高于4000英尺
多云层高于10000英尺
短暂存在
从 01日的 00点(UTC)到 01日的 04点(UTC)
少量云层高于2000英尺, 积雨云.
多云层高于3000英尺
雷暴, 小雨
几率 40% :
短暂存在
从 01日的 07点(UTC)到 01日的 11点(UTC)
少量云层高于2000英尺, 积雨云.
多云层高于3000英尺
雷暴, 小雨
成为
从 01日的 11点(UTC)到 01日的 14点(UTC)
风速12节,风向
短暂存在
从 01日的 14点(UTC)到 01日的 17点(UTC)
少量云层高于2000英尺, 积雨云.
小阵雨
成为
从 01日的 18点(UTC)到 01日的 21点(UTC)
风速2节,风向多变
能见度10公里或以上
1500米以下无云,无积雨云

TAF: LTFJ 010019Z 0100/0124 24009KT 9999 SCT040 BKN100 TEMPO 0100/0104 -TSRA FEW020CB BKN030 PROB40 TEMPO 0107/0111 -TSRA FEW020CB BKN030 BECMG 0111/0114 01012KT TEMPO 0114/0117 -SHRA FEW020CB BECMG 0118/0121 VRB02KT CAVOK

超过4000个机场的气象观测和天气预报(METAR&TAF报告)。

可查询的气象台以黄色和红色小点在地图上表示。

将鼠标移到小点上方,可查看气象台名称。

然后点击查看天气观测和预报。

如需切换地图:点击带黑十字的绿色按钮放大地图;点击带横线的绿色按钮缩小地图;或者点击绿色箭头查看邻近地区的地图。


METAR-TAF: